sensor_id;sensor_type;location;lat;lon;timestamp;temperature;humidity
20504;DHT22;10410;51.046;6.980;2023-08-08T00:00:42;14.90;99.90
20504;DHT22;10410;51.046;6.980;2023-08-08T00:07:42;14.90;99.90
20504;DHT22;10410;51.046;6.980;2023-08-08T00:14:43;14.80;99.90
20504;DHT22;10410;51.046;6.980;2023-08-08T00:21:44;14.70;99.90
20504;DHT22;10410;51.046;6.980;2023-08-08T00:28:44;14.60;99.90
20504;DHT22;10410;51.046;6.980;2023-08-08T00:35:45;14.50;99.90
20504;DHT22;10410;51.046;6.980;2023-08-08T00:42:45;14.40;99.90
20504;DHT22;10410;51.046;6.980;2023-08-08T00:49:46;14.40;99.90
20504;DHT22;10410;51.046;6.980;2023-08-08T00:56:48;14.20;99.90
20504;DHT22;10410;51.046;6.980;2023-08-08T01:03:49;14.10;99.90
20504;DHT22;10410;51.046;6.980;2023-08-08T01:10:50;14.10;99.90
20504;DHT22;10410;51.046;6.980;2023-08-08T01:17:52;14.00;99.90
20504;DHT22;10410;51.046;6.980;2023-08-08T01:24:54;13.90;99.90
20504;DHT22;10410;51.046;6.980;2023-08-08T01:31:55;13.90;99.90
20504;DHT22;10410;51.046;6.980;2023-08-08T01:38:59;13.90;99.90
20504;DHT22;10410;51.046;6.980;2023-08-08T01:46:04;14.00;99.90
20504;DHT22;10410;51.046;6.980;2023-08-08T01:53:05;13.90;99.90
20504;DHT22;10410;51.046;6.980;2023-08-08T02:00:07;13.90;99.90
20504;DHT22;10410;51.046;6.980;2023-08-08T02:07:14;14.00;99.90
20504;DHT22;10410;51.046;6.980;2023-08-08T02:14:15;14.00;99.90
20504;DHT22;10410;51.046;6.980;2023-08-08T02:21:16;14.00;99.90
20504;DHT22;10410;51.046;6.980;2023-08-08T02:28:16;14.00;99.90
20504;DHT22;10410;51.046;6.980;2023-08-08T02:35:17;14.00;99.90
20504;DHT22;10410;51.046;6.980;2023-08-08T02:42:17;13.90;99.90
20504;DHT22;10410;51.046;6.980;2023-08-08T02:49:18;13.90;99.90
20504;DHT22;10410;51.046;6.980;2023-08-08T02:56:19;13.90;99.90
20504;DHT22;10410;51.046;6.980;2023-08-08T03:03:19;13.80;99.90
20504;DHT22;10410;51.046;6.980;2023-08-08T03:10:20;13.80;99.90
20504;DHT22;10410;51.046;6.980;2023-08-08T03:17:21;13.70;99.90
20504;DHT22;10410;51.046;6.980;2023-08-08T03:24:22;13.70;99.90
20504;DHT22;10410;51.046;6.980;2023-08-08T03:31:23;13.60;99.90
20504;DHT22;10410;51.046;6.980;2023-08-08T03:38:24;13.60;99.90
20504;DHT22;10410;51.046;6.980;2023-08-08T03:45:25;13.60;99.90
20504;DHT22;10410;51.046;6.980;2023-08-08T03:52:25;13.60;99.90
20504;DHT22;10410;51.046;6.980;2023-08-08T03:59:26;13.60;99.90
20504;DHT22;10410;51.046;6.980;2023-08-08T04:06:27;13.70;99.90
20504;DHT22;10410;51.046;6.980;2023-08-08T04:13:27;13.70;99.90
20504;DHT22;10410;51.046;6.980;2023-08-08T04:20:27;13.70;99.90
20504;DHT22;10410;51.046;6.980;2023-08-08T04:27:28;13.70;99.90
20504;DHT22;10410;51.046;6.980;2023-08-08T04:34:29;13.60;99.90
20504;DHT22;10410;51.046;6.980;2023-08-08T04:41:30;13.70;99.90
20504;DHT22;10410;51.046;6.980;2023-08-08T04:48:30;13.70;99.90
20504;DHT22;10410;51.046;6.980;2023-08-08T04:55:31;13.60;99.90
20504;DHT22;10410;51.046;6.980;2023-08-08T05:02:31;13.60;99.90
20504;DHT22;10410;51.046;6.980;2023-08-08T05:09:32;13.70;99.90
20504;DHT22;10410;51.046;6.980;2023-08-08T05:16:32;13.90;99.90
20504;DHT22;10410;51.046;6.980;2023-08-08T05:23:33;14.00;99.90
20504;DHT22;10410;51.046;6.980;2023-08-08T05:30:33;14.00;99.90
20504;DHT22;10410;51.046;6.980;2023-08-08T05:37:34;14.10;99.90
20504;DHT22;10410;51.046;6.980;2023-08-08T05:44:35;14.10;99.90
20504;DHT22;10410;51.046;6.980;2023-08-08T05:51:36;14.20;99.90
20504;DHT22;10410;51.046;6.980;2023-08-08T05:58:36;14.30;99.90
20504;DHT22;10410;51.046;6.980;2023-08-08T06:05:39;14.40;99.90
20504;DHT22;10410;51.046;6.980;2023-08-08T06:12:40;14.50;99.90
20504;DHT22;10410;51.046;6.980;2023-08-08T06:19:41;14.50;99.90
20504;DHT22;10410;51.046;6.980;2023-08-08T06:26:41;14.60;99.90
20504;DHT22;10410;51.046;6.980;2023-08-08T06:33:41;14.70;99.90
20504;DHT22;10410;51.046;6.980;2023-08-08T06:40:42;14.80;99.90
20504;DHT22;10410;51.046;6.980;2023-08-08T06:47:43;14.90;99.90
20504;DHT22;10410;51.046;6.980;2023-08-08T06:54:43;15.00;99.90
20504;DHT22;10410;51.046;6.980;2023-08-08T07:01:44;15.00;99.90
20504;DHT22;10410;51.046;6.980;2023-08-08T07:08:44;15.20;99.90
20504;DHT22;10410;51.046;6.980;2023-08-08T07:15:45;15.30;99.90
20504;DHT22;10410;51.046;6.980;2023-08-08T07:22:45;15.30;99.90
20504;DHT22;10410;51.046;6.980;2023-08-08T07:29:46;15.40;99.90
20504;DHT22;10410;51.046;6.980;2023-08-08T07:36:47;15.40;99.90
20504;DHT22;10410;51.046;6.980;2023-08-08T07:43:48;15.50;99.90
20504;DHT22;10410;51.046;6.980;2023-08-08T07:50:48;15.50;99.90
20504;DHT22;10410;51.046;6.980;2023-08-08T07:57:48;15.70;99.90
20504;DHT22;10410;51.046;6.980;2023-08-08T08:04:49;15.80;99.90
20504;DHT22;10410;51.046;6.980;2023-08-08T08:11:49;15.90;99.90
20504;DHT22;10410;51.046;6.980;2023-08-08T08:18:50;16.10;99.90
20504;DHT22;10410;51.046;6.980;2023-08-08T08:25:50;16.20;99.90
20504;DHT22;10410;51.046;6.980;2023-08-08T08:32:51;16.30;99.90
20504;DHT22;10410;51.046;6.980;2023-08-08T08:39:52;16.40;99.90
20504;DHT22;10410;51.046;6.980;2023-08-08T08:46:53;16.40;99.90
20504;DHT22;10410;51.046;6.980;2023-08-08T08:53:54;16.20;99.90
20504;DHT22;10410;51.046;6.980;2023-08-08T09:00:56;15.70;99.90
20504;DHT22;10410;51.046;6.980;2023-08-08T09:07:58;15.40;99.90
20504;DHT22;10410;51.046;6.980;2023-08-08T09:14:59;15.30;99.90
20504;DHT22;10410;51.046;6.980;2023-08-08T09:22:00;15.30;99.90
20504;DHT22;10410;51.046;6.980;2023-08-08T09:29:03;15.20;99.90
20504;DHT22;10410;51.046;6.980;2023-08-08T09:36:03;15.20;99.90
20504;DHT22;10410;51.046;6.980;2023-08-08T09:43:07;15.20;99.90
20504;DHT22;10410;51.046;6.980;2023-08-08T09:50:08;15.10;99.90
20504;DHT22;10410;51.046;6.980;2023-08-08T09:57:10;14.90;99.90
20504;DHT22;10410;51.046;6.980;2023-08-08T10:04:12;14.80;99.90
20504;DHT22;10410;51.046;6.980;2023-08-08T10:11:13;14.80;99.90
20504;DHT22;10410;51.046;6.980;2023-08-08T10:18:14;15.10;99.90
20504;DHT22;10410;51.046;6.980;2023-08-08T10:25:33;15.30;99.90
20504;DHT22;10410;51.046;6.980;2023-08-08T10:32:41;15.50;99.90
20504;DHT22;10410;51.046;6.980;2023-08-08T10:39:57;15.90;99.90
20504;DHT22;10410;51.046;6.980;2023-08-08T10:47:00;16.20;99.90
20504;DHT22;10410;51.046;6.980;2023-08-08T10:54:04;16.40;99.90
20504;DHT22;10410;51.046;6.980;2023-08-08T11:01:05;16.50;99.90
20504;DHT22;10410;51.046;6.980;2023-08-08T11:08:10;16.40;99.90
20504;DHT22;10410;51.046;6.980;2023-08-08T11:15:10;16.40;99.90
20504;DHT22;10410;51.046;6.980;2023-08-08T11:22:11;16.50;99.90
20504;DHT22;10410;51.046;6.980;2023-08-08T11:29:12;16.70;99.90
20504;DHT22;10410;51.046;6.980;2023-08-08T11:36:14;16.80;99.90
20504;DHT22;10410;51.046;6.980;2023-08-08T11:43:14;16.90;99.90
20504;DHT22;10410;51.046;6.980;2023-08-08T11:50:15;16.90;99.90
20504;DHT22;10410;51.046;6.980;2023-08-08T11:57:16;17.00;99.90
20504;DHT22;10410;51.046;6.980;2023-08-08T12:04:20;17.00;99.90
20504;DHT22;10410;51.046;6.980;2023-08-08T12:11:21;17.00;99.90
20504;DHT22;10410;51.046;6.980;2023-08-08T12:18:25;17.10;99.90
20504;DHT22;10410;51.046;6.980;2023-08-08T12:25:25;17.20;99.90
20504;DHT22;10410;51.046;6.980;2023-08-08T12:32:26;17.20;99.90
20504;DHT22;10410;51.046;6.980;2023-08-08T12:39:29;17.10;99.90
20504;DHT22;10410;51.046;6.980;2023-08-08T12:46:30;16.70;99.90
20504;DHT22;10410;51.046;6.980;2023-08-08T12:53:30;16.20;99.90
20504;DHT22;10410;51.046;6.980;2023-08-08T13:00:31;15.70;99.90
20504;DHT22;10410;51.046;6.980;2023-08-08T13:07:31;15.40;99.90
20504;DHT22;10410;51.046;6.980;2023-08-08T13:14:32;15.30;99.90
20504;DHT22;10410;51.046;6.980;2023-08-08T13:21:33;15.20;99.90
20504;DHT22;10410;51.046;6.980;2023-08-08T13:28:34;15.40;99.90
20504;DHT22;10410;51.046;6.980;2023-08-08T13:35:35;15.80;99.90
20504;DHT22;10410;51.046;6.980;2023-08-08T13:42:35;16.30;99.90
20504;DHT22;10410;51.046;6.980;2023-08-08T13:49:36;16.60;99.90
20504;DHT22;10410;51.046;6.980;2023-08-08T13:56:36;16.80;99.90
20504;DHT22;10410;51.046;6.980;2023-08-08T14:03:37;16.80;99.90
20504;DHT22;10410;51.046;6.980;2023-08-08T14:10:37;16.90;99.90
20504;DHT22;10410;51.046;6.980;2023-08-08T14:17:38;17.30;99.90
20504;DHT22;10410;51.046;6.980;2023-08-08T14:24:39;17.80;99.90
20504;DHT22;10410;51.046;6.980;2023-08-08T14:31:40;18.00;99.90
20504;DHT22;10410;51.046;6.980;2023-08-08T14:38:58;18.10;99.90
20504;DHT22;10410;51.046;6.980;2023-08-08T14:45:58;18.60;99.90
20504;DHT22;10410;51.046;6.980;2023-08-08T14:52:59;19.10;99.90
20504;DHT22;10410;51.046;6.980;2023-08-08T14:59:59;19.00;99.90
20504;DHT22;10410;51.046;6.980;2023-08-08T15:07:03;19.20;99.90
20504;DHT22;10410;51.046;6.980;2023-08-08T15:14:03;19.20;99.90
20504;DHT22;10410;51.046;6.980;2023-08-08T15:21:04;19.10;99.90
20504;DHT22;10410;51.046;6.980;2023-08-08T15:28:04;19.30;99.90
20504;DHT22;10410;51.046;6.980;2023-08-08T15:35:05;19.70;99.90
20504;DHT22;10410;51.046;6.980;2023-08-08T15:42:06;20.30;99.90
20504;DHT22;10410;51.046;6.980;2023-08-08T15:49:07;20.10;99.90
20504;DHT22;10410;51.046;6.980;2023-08-08T15:56:07;19.90;99.90
20504;DHT22;10410;51.046;6.980;2023-08-08T16:03:08;20.10;99.90
20504;DHT22;10410;51.046;6.980;2023-08-08T16:10:09;20.40;99.90
20504;DHT22;10410;51.046;6.980;2023-08-08T16:17:10;20.20;99.90
20504;DHT22;10410;51.046;6.980;2023-08-08T16:24:10;19.80;99.90
20504;DHT22;10410;51.046;6.980;2023-08-08T16:31:11;19.60;99.90
20504;DHT22;10410;51.046;6.980;2023-08-08T16:38:11;19.50;99.90
20504;DHT22;10410;51.046;6.980;2023-08-08T16:45:12;19.50;99.90
20504;DHT22;10410;51.046;6.980;2023-08-08T16:52:13;19.40;99.90
20504;DHT22;10410;51.046;6.980;2023-08-08T16:59:14;19.20;99.90
20504;DHT22;10410;51.046;6.980;2023-08-08T17:06:14;19.20;99.90
20504;DHT22;10410;51.046;6.980;2023-08-08T17:13:15;19.10;99.90
20504;DHT22;10410;51.046;6.980;2023-08-08T17:20:15;19.00;99.90
20504;DHT22;10410;51.046;6.980;2023-08-08T17:27:16;18.90;99.90
20504;DHT22;10410;51.046;6.980;2023-08-08T17:34:16;18.90;99.90
20504;DHT22;10410;51.046;6.980;2023-08-08T17:41:17;18.80;99.90
20504;DHT22;10410;51.046;6.980;2023-08-08T17:48:17;18.70;99.90
20504;DHT22;10410;51.046;6.980;2023-08-08T17:55:18;18.60;99.90
20504;DHT22;10410;51.046;6.980;2023-08-08T18:02:19;18.40;99.90
20504;DHT22;10410;51.046;6.980;2023-08-08T18:09:19;18.30;99.90
20504;DHT22;10410;51.046;6.980;2023-08-08T18:16:21;18.30;99.90
20504;DHT22;10410;51.046;6.980;2023-08-08T18:23:22;18.30;99.90
20504;DHT22;10410;51.046;6.980;2023-08-08T18:30:23;18.20;99.90
20504;DHT22;10410;51.046;6.980;2023-08-08T18:37:23;18.20;99.90
20504;DHT22;10410;51.046;6.980;2023-08-08T18:44:24;18.10;99.90
20504;DHT22;10410;51.046;6.980;2023-08-08T18:51:25;18.10;99.90
20504;DHT22;10410;51.046;6.980;2023-08-08T18:58:25;18.10;99.90
20504;DHT22;10410;51.046;6.980;2023-08-08T19:05:27;18.00;99.90
20504;DHT22;10410;51.046;6.980;2023-08-08T19:12:27;18.00;99.90
20504;DHT22;10410;51.046;6.980;2023-08-08T19:19:27;17.90;99.90
20504;DHT22;10410;51.046;6.980;2023-08-08T19:26:28;17.80;99.90
20504;DHT22;10410;51.046;6.980;2023-08-08T19:33:30;17.70;99.90
20504;DHT22;10410;51.046;6.980;2023-08-08T19:40:31;17.70;99.90
20504;DHT22;10410;51.046;6.980;2023-08-08T19:47:32;17.70;99.90
20504;DHT22;10410;51.046;6.980;2023-08-08T19:54:32;17.60;99.90
20504;DHT22;10410;51.046;6.980;2023-08-08T20:01:33;17.50;99.90
20504;DHT22;10410;51.046;6.980;2023-08-08T20:08:33;17.10;99.90
20504;DHT22;10410;51.046;6.980;2023-08-08T20:15:34;16.50;99.90
20504;DHT22;10410;51.046;6.980;2023-08-08T20:22:35;16.00;99.90
20504;DHT22;10410;51.046;6.980;2023-08-08T20:29:35;15.70;99.90
20504;DHT22;10410;51.046;6.980;2023-08-08T20:36:36;15.50;99.90
20504;DHT22;10410;51.046;6.980;2023-08-08T20:43:36;15.40;99.90
20504;DHT22;10410;51.046;6.980;2023-08-08T20:50:39;15.30;99.90
20504;DHT22;10410;51.046;6.980;2023-08-08T20:57:39;15.20;99.90
20504;DHT22;10410;51.046;6.980;2023-08-08T21:04:40;15.10;99.90
20504;DHT22;10410;51.046;6.980;2023-08-08T21:11:40;15.00;99.90
20504;DHT22;10410;51.046;6.980;2023-08-08T21:18:41;15.00;99.90
20504;DHT22;10410;51.046;6.980;2023-08-08T21:25:41;15.00;99.90
20504;DHT22;10410;51.046;6.980;2023-08-08T21:32:42;15.00;99.90
20504;DHT22;10410;51.046;6.980;2023-08-08T21:39:42;15.00;99.90
20504;DHT22;10410;51.046;6.980;2023-08-08T21:46:43;15.00;99.90
20504;DHT22;10410;51.046;6.980;2023-08-08T21:53:43;15.10;99.90
20504;DHT22;10410;51.046;6.980;2023-08-08T22:00:44;15.10;99.90
20504;DHT22;10410;51.046;6.980;2023-08-08T22:07:45;15.10;99.90
20504;DHT22;10410;51.046;6.980;2023-08-08T22:14:45;15.10;99.90
20504;DHT22;10410;51.046;6.980;2023-08-08T22:21:46;15.10;99.90
20504;DHT22;10410;51.046;6.980;2023-08-08T22:28:46;15.00;99.90
20504;DHT22;10410;51.046;6.980;2023-08-08T22:35:47;15.00;99.90
20504;DHT22;10410;51.046;6.980;2023-08-08T22:42:47;15.00;99.90
20504;DHT22;10410;51.046;6.980;2023-08-08T22:49:48;15.00;99.90
20504;DHT22;10410;51.046;6.980;2023-08-08T22:56:48;15.00;99.90
20504;DHT22;10410;51.046;6.980;2023-08-08T23:03:49;15.00;99.90
20504;DHT22;10410;51.046;6.980;2023-08-08T23:10:50;14.90;99.90
20504;DHT22;10410;51.046;6.980;2023-08-08T23:17:51;15.00;99.90
20504;DHT22;10410;51.046;6.980;2023-08-08T23:24:52;15.00;99.90
20504;DHT22;10410;51.046;6.980;2023-08-08T23:31:52;15.00;99.90
20504;DHT22;10410;51.046;6.980;2023-08-08T23:38:53;15.00;99.90
20504;DHT22;10410;51.046;6.980;2023-08-08T23:45:54;15.10;99.90
20504;DHT22;10410;51.046;6.980;2023-08-08T23:52:54;15.10;99.90
20504;DHT22;10410;51.046;6.980;2023-08-08T23:59:55;15.10;99.90
